Time;durP1;ratioP1;P1;durP2;ratioP2;P2;SDS_P1;SDS_P2;PMS_P1;PMS_P2;Temp;Humidity;BMP_temperature;BMP_pressure;BME280_temperature;BME280_humidity;BME280_pressure;Samples;Min_cycle;Max_cycle;Signal;HPM_P1;HPM_P2
2021/06/17 00:02:05;;;;;;;9.40;4.13;;;27.30;59.30;;;;;;4955758;28;20027;-71
2021/06/17 00:04:32;;;;;;;10.93;4.57;;;27.10;59.70;;;;;;4955970;28;20381;-70
2021/06/17 00:06:58;;;;;;;11.82;4.75;;;26.90;59.50;;;;;;4955595;28;20058;-71
2021/06/17 00:09:24;;;;;;;8.15;4.35;;;26.80;59.70;;;;;;4955626;28;20468;-71
2021/06/17 00:11:50;;;;;;;11.43;5.38;;;26.80;60.10;;;;;;4955293;28;20436;-70
2021/06/17 00:14:15;;;;;;;9.77;4.90;;;26.70;60.20;;;;;;4955407;28;20023;-71
2021/06/17 00:16:41;;;;;;;9.00;5.00;;;26.70;60.30;;;;;;4955326;28;20424;-71
2021/06/17 00:19:07;;;;;;;8.63;4.90;;;26.80;60.20;;;;;;4955494;28;20036;-72
2021/06/17 00:21:33;;;;;;;9.55;5.05;;;26.80;61.40;;;;;;4955346;28;20453;-70
2021/06/17 00:23:59;;;;;;;11.30;5.05;;;26.80;61.40;;;;;;4955486;28;20035;-70
2021/06/17 00:26:26;;;;;;;10.85;5.07;;;26.80;61.50;;;;;;4955256;28;20035;-72
2021/06/17 00:28:51;;;;;;;9.95;5.40;;;26.80;61.60;;;;;;4955153;28;20055;-73
2021/06/17 00:31:17;;;;;;;9.05;5.25;;;26.60;62.00;;;;;;4955144;28;20051;-72
2021/06/17 00:33:43;;;;;;;11.32;5.18;;;26.40;62.90;;;;;;4955064;28;20515;-71
2021/06/17 00:36:09;;;;;;;11.50;4.85;;;26.40;63.20;;;;;;4955181;28;20138;-72
2021/06/17 00:38:35;;;;;;;13.93;5.40;;;26.30;63.60;;;;;;4955161;29;20171;-70
2021/06/17 00:41:00;;;;;;;13.52;4.85;;;26.40;63.40;;;;;;4955180;28;20028;-73
2021/06/17 00:43:26;;;;;;;12.05;5.00;;;26.40;63.50;;;;;;4953828;29;20038;-71
2021/06/17 00:45:53;;;;;;;10.52;4.78;;;26.60;63.30;;;;;;4955164;28;20027;-72
2021/06/17 00:48:20;;;;;;;9.60;4.60;;;26.60;63.20;;;;;;4954068;29;20031;-73
2021/06/17 00:50:46;;;;;;;13.85;5.20;;;26.60;63.00;;;;;;4954905;28;20480;-73
2021/06/17 00:53:13;;;;;;;9.98;4.80;;;26.50;63.60;;;;;;4955146;28;20135;-73
2021/06/17 00:55:41;;;;;;;9.35;4.85;;;26.50;63.30;;;;;;4955122;28;20027;-73
2021/06/17 00:58:07;;;;;;;9.90;5.28;;;26.30;64.00;;;;;;4953931;29;20118;-71
2021/06/17 01:00:33;;;;;;;11.27;5.15;;;26.20;64.30;;;;;;4955492;28;20150;-73
2021/06/17 01:02:59;;;;;;;10.95;5.40;;;26.10;64.40;;;;;;4953781;29;20062;-72
2021/06/17 01:05:25;;;;;;;11.35;5.07;;;26.10;64.70;;;;;;4954991;28;20453;-74
2021/06/17 01:08:06;;;;;;;10.57;5.00;;;26.10;64.50;;;;;;4955011;28;20543;-74
2021/06/17 01:11:03;;;;;;;11.05;5.75;;;26.10;65.50;;;;;;4954940;28;20035;-73
2021/06/17 01:13:48;;;;;;;10.35;5.03;;;26.20;65.60;;;;;;4954534;29;20500;-74
2021/06/17 01:16:36;;;;;;;10.20;5.90;;;26.20;64.90;;;;;;4960289;28;20038;-73
2021/06/17 01:19:13;;;;;;;7.80;5.10;;;26.30;65.40;;;;;;4959833;29;20043;-74
2021/06/17 01:22:00;;;;;;;10.13;5.40;;;26.30;64.80;;;;;;4961558;28;20023;-73
2021/06/17 01:24:41;;;;;;;12.57;5.45;;;26.40;65.40;;;;;;4961483;28;20062;-75
2021/06/17 01:27:25;;;;;;;10.35;5.30;;;26.50;64.30;;;;;;4961401;28;20114;-74
2021/06/17 01:29:54;;;;;;;9.60;5.30;;;26.40;65.20;;;;;;4961110;28;20086;-73
2021/06/17 01:32:21;;;;;;;8.73;4.72;;;26.50;64.20;;;;;;4961457;28;20428;-73
2021/06/17 01:34:50;;;;;;;11.50;5.57;;;26.60;64.10;;;;;;4959868;28;20047;-74
2021/06/17 01:37:19;;;;;;;11.43;4.90;;;26.60;64.00;;;;;;4961629;28;20027;-77
2021/06/17 01:39:46;;;;;;;12.80;5.25;;;26.60;63.90;;;;;;4961308;28;20049;-74
2021/06/17 01:42:14;;;;;;;11.25;5.55;;;26.60;63.80;;;;;;4961337;28;20098;-73
2021/06/17 01:44:41;;;;;;;11.98;5.60;;;26.60;64.20;;;;;;4960949;28;20050;-72
2021/06/17 01:47:08;;;;;;;10.93;5.60;;;26.70;63.70;;;;;;4960988;28;20023;-71
2021/06/17 01:49:38;;;;;;;12.50;6.35;;;26.50;64.00;;;;;;4960855;28;20058;-72
2021/06/17 01:52:06;;;;;;;17.77;6.28;;;26.40;64.60;;;;;;4961150;28;20031;-72
2021/06/17 01:54:32;;;;;;;11.70;6.20;;;26.10;64.80;;;;;;4961443;28;20024;-72
2021/06/17 01:57:01;;;;;;;8.98;6.13;;;25.80;65.20;;;;;;4961147;28;20135;-74
2021/06/17 01:59:29;;;;;;;10.32;6.30;;;25.70;65.60;;;;;;4961330;28;20166;-73
2021/06/17 02:01:58;;;;;;;8.93;5.75;;;25.50;66.10;;;;;;4959575;28;20039;-72
2021/06/17 02:04:26;;;;;;;12.23;5.95;;;25.60;66.40;;;;;;4960860;28;20027;-71
2021/06/17 02:06:54;;;;;;;11.07;6.50;;;25.70;66.20;;;;;;4960798;28;20504;-71
2021/06/17 02:09:23;;;;;;;13.38;6.43;;;25.70;66.20;;;;;;4959467;28;20380;-71
2021/06/17 02:11:50;;;;;;;9.50;5.80;;;25.80;66.00;;;;;;4960866;28;20055;-71
2021/06/17 02:14:16;;;;;;;10.88;6.15;;;25.90;65.70;;;;;;4960879;28;20086;-73
2021/06/17 02:16:43;;;;;;;16.02;6.32;;;26.00;65.50;;;;;;4959410;28;20365;-71
2021/06/17 02:19:14;;;;;;;12.10;5.63;;;26.00;65.40;;;;;;4960422;28;20039;-71
2021/06/17 02:21:42;;;;;;;10.10;6.07;;;26.30;64.90;;;;;;4960684;28;20046;-71
2021/06/17 02:24:10;;;;;;;9.63;6.22;;;26.30;64.60;;;;;;4960750;28;20492;-72
2021/06/17 02:26:42;;;;;;;11.60;5.65;;;26.40;64.70;;;;;;4958014;28;20066;-70
2021/06/17 02:29:11;;;;;;;12.38;6.07;;;26.50;64.30;;;;;;4957557;28;20115;-71
2021/06/17 02:31:42;;;;;;;9.85;5.35;;;26.50;64.40;;;;;;4957402;28;20103;-72
2021/06/17 02:34:13;;;;;;;11.73;5.80;;;26.50;64.40;;;;;;4957479;28;20034;-72
2021/06/17 02:36:43;;;;;;;16.48;5.40;;;26.50;64.40;;;;;;4957408;28;20023;-73
2021/06/17 02:39:12;;;;;;;14.75;6.00;;;26.60;64.00;;;;;;4957446;28;20054;-72
2021/06/17 02:41:43;;;;;;;11.75;6.00;;;26.70;63.90;;;;;;4957264;28;20027;-70
2021/06/17 02:44:10;;;;;;;14.10;5.75;;;26.60;64.10;;;;;;4957327;28;20055;-73
2021/06/17 02:46:36;;;;;;;9.00;6.25;;;26.50;64.30;;;;;;4957277;28;20032;-72
2021/06/17 02:49:07;;;;;;;13.00;6.55;;;26.40;64.30;;;;;;4957131;28;20090;-73
2021/06/17 02:51:33;;;;;;;10.60;6.93;;;26.40;64.40;;;;;;4955943;29;20034;-72
2021/06/17 02:53:59;;;;;;;11.75;7.05;;;26.40;64.20;;;;;;4957368;28;20476;-72
2021/06/17 02:56:27;;;;;;;10.55;6.57;;;26.30;64.60;;;;;;4957064;28;20110;-73
2021/06/17 02:59:11;;;;;;;13.35;6.25;;;26.20;64.90;;;;;;4957044;28;20038;-72
2021/06/17 03:01:43;;;;;;;10.40;6.28;;;26.10;65.70;;;;;;4957178;28;20065;-72
2021/06/17 03:04:21;;;;;;;10.35;5.90;;;26.10;65.40;;;;;;4956920;28;20027;-72
2021/06/17 03:06:52;;;;;;;11.25;6.03;;;26.10;65.30;;;;;;4957007;28;20035;-72
2021/06/17 03:09:28;;;;;;;12.50;5.57;;;26.10;65.80;;;;;;4957092;28;20484;-71
2021/06/17 03:11:57;;;;;;;12.95;6.45;;;26.10;65.30;;;;;;4956614;28;20134;-73
2021/06/17 03:14:28;;;;;;;11.43;6.03;;;26.10;65.20;;;;;;4956847;28;20059;-71
2021/06/17 03:16:57;;;;;;;11.23;5.68;;;26.10;64.80;;;;;;4956849;28;20015;-71
2021/06/17 03:19:26;;;;;;;10.93;5.10;;;26.10;65.00;;;;;;4956630;28;20110;-70
2021/06/17 03:21:56;;;;;;;11.50;5.97;;;26.20;64.70;;;;;;4956696;28;20027;-72
2021/06/17 03:24:26;;;;;;;12.27;5.60;;;26.10;64.70;;;;;;4955450;29;20041;-71
2021/06/17 03:26:53;;;;;;;11.70;5.63;;;26.10;65.00;;;;;;4956716;28;20434;-72
2021/06/17 03:29:23;;;;;;;9.60;5.65;;;26.10;64.90;;;;;;4956609;28;20114;-71
2021/06/17 03:31:49;;;;;;;10.20;5.88;;;26.10;65.00;;;;;;4956454;28;20027;-73
2021/06/17 03:34:16;;;;;;;11.05;5.57;;;26.20;65.10;;;;;;4956501;28;20102;-71
2021/06/17 03:36:42;;;;;;;10.30;5.57;;;26.30;64.60;;;;;;4956489;28;20066;-71
2021/06/17 03:39:09;;;;;;;10.43;5.68;;;26.30;63.80;;;;;;4956202;28;20058;-72
2021/06/17 03:41:36;;;;;;;9.02;5.55;;;26.20;64.10;;;;;;4956485;28;20098;-72
2021/06/17 03:44:03;;;;;;;9.10;5.30;;;26.20;64.40;;;;;;4956219;28;20468;-72
2021/06/17 03:46:29;;;;;;;10.23;5.55;;;26.20;64.50;;;;;;4956257;28;20165;-71
2021/06/17 03:48:57;;;;;;;11.93;6.00;;;26.20;64.10;;;;;;4956444;28;20035;-71
2021/06/17 03:51:24;;;;;;;9.50;5.25;;;26.20;64.40;;;;;;4956299;28;20098;-71
2021/06/17 03:53:50;;;;;;;9.20;4.82;;;26.10;64.50;;;;;;4955903;28;20532;-72
2021/06/17 03:56:17;;;;;;;9.70;5.25;;;26.20;64.40;;;;;;4955715;28;20015;-73
2021/06/17 03:58:44;;;;;;;11.95;5.80;;;26.10;64.70;;;;;;4956049;28;20035;-71
2021/06/17 04:01:11;;;;;;;9.07;5.30;;;26.20;64.30;;;;;;4955840;28;20034;-72
2021/06/17 04:03:37;;;;;;;11.70;5.85;;;26.20;64.40;;;;;;4956122;28;20103;-72
2021/06/17 04:06:04;;;;;;;9.88;5.35;;;26.20;64.40;;;;;;4956197;28;20495;-71
2021/06/17 04:08:38;;;;;;;14.35;5.15;;;26.20;64.50;;;;;;4955957;28;20057;-71
2021/06/17 04:11:07;;;;;;;7.60;4.88;;;26.20;65.30;;;;;;4955602;28;20055;-71
2021/06/17 04:13:38;;;;;;;11.75;5.47;;;26.30;64.30;;;;;;4955936;28;20035;-72
2021/06/17 04:16:05;;;;;;;10.88;5.20;;;26.30;64.20;;;;;;4955697;28;20024;-74
2021/06/17 04:18:35;;;;;;;10.20;5.10;;;26.40;64.30;;;;;;4955720;28;20039;-75
2021/06/17 04:21:01;;;;;;;12.32;5.57;;;26.30;64.10;;;;;;4955577;28;20110;-73
2021/06/17 04:23:28;;;;;;;9.82;5.53;;;26.30;64.10;;;;;;4955873;28;20031;-71
2021/06/17 04:25:57;;;;;;;13.27;6.00;;;26.30;64.10;;;;;;4955466;28;20023;-72
2021/06/17 04:28:26;;;;;;;15.52;7.28;;;26.40;64.30;;;;;;4955460;28;20166;-73
2021/06/17 04:30:53;;;;;;;10.23;5.78;;;26.30;64.30;;;;;;4955869;28;20480;-71
2021/06/17 04:33:21;;;;;;;10.40;6.03;;;26.10;64.80;;;;;;4955604;28;20031;-72
2021/06/17 04:35:49;;;;;;;13.00;6.18;;;26.10;64.70;;;;;;4955576;28;20034;-74
2021/06/17 04:38:16;;;;;;;12.48;5.68;;;26.30;64.40;;;;;;4955468;28;20393;-76
2021/06/17 04:40:45;;;;;;;12.35;6.68;;;26.30;64.10;;;;;;4955412;28;20034;-76
2021/06/17 04:43:12;;;;;;;11.40;5.80;;;26.30;63.90;;;;;;4955442;28;20061;-73
2021/06/17 04:45:38;;;;;;;11.95;5.60;;;26.40;63.90;;;;;;4955560;28;20028;-75
2021/06/17 04:48:08;;;;;;;9.75;5.30;;;26.40;63.80;;;;;;4955620;28;20058;-75
2021/06/17 04:50:35;;;;;;;10.10;5.75;;;26.50;63.90;;;;;;4954834;28;20027;-75
2021/06/17 04:53:13;;;;;;;10.65;5.43;;;26.50;63.70;;;;;;4955214;28;20043;-73
2021/06/17 04:55:51;;;;;;;11.43;5.85;;;26.50;63.50;;;;;;4955210;28;20023;-74
2021/06/17 04:58:18;;;;;;;9.48;6.10;;;26.50;63.60;;;;;;4955268;28;20027;-74
2021/06/17 05:00:43;;;;;;;12.52;7.05;;;26.50;63.60;;;;;;4955243;28;20023;-72
2021/06/17 05:03:09;;;;;;;14.10;6.72;;;26.50;63.80;;;;;;4955086;28;20093;-71
2021/06/17 05:05:35;;;;;;;12.32;7.25;;;26.50;63.80;;;;;;4953746;29;20028;-69
2021/06/17 05:13:28;;;;;;;11.98;6.50;;;26.60;63.60;;;;;;4955080;28;20596;-72
2021/06/17 05:15:55;;;;;;;9.85;5.97;;;26.60;64.20;;;;;;4954647;28;20094;-71
2021/06/17 05:18:22;;;;;;;13.10;7.25;;;26.80;63.30;;;;;;4954653;28;20046;-72
2021/06/17 05:20:49;;;;;;;13.07;7.10;;;26.90;62.90;;;;;;4955379;28;20082;-71
2021/06/17 05:23:18;;;;;;;10.80;6.95;;;27.10;62.30;;;;;;4954966;28;20031;-70
2021/06/17 05:25:45;;;;;;;11.77;7.13;;;27.30;61.80;;;;;;4954924;28;20019;-70
2021/06/17 05:28:15;;;;;;;11.45;6.57;;;27.50;61.20;;;;;;4955179;28;20039;-73
2021/06/17 05:30:45;;;;;;;10.73;7.40;;;27.80;60.70;;;;;;4954829;28;20035;-72
2021/06/17 05:33:11;;;;;;;12.77;7.50;;;28.00;60.00;;;;;;4954815;28;20031;-72
2021/06/17 05:35:37;;;;;;;11.20;7.30;;;28.00;59.80;;;;;;4948417;28;20027;-72
2021/06/17 05:38:03;;;;;;;9.95;6.85;;;28.20;59.50;;;;;;4943995;28;20039;-71
2021/06/17 05:40:29;;;;;;;12.80;6.68;;;28.50;59.00;;;;;;4925265;29;20055;-70
2021/06/17 05:42:55;;;;;;;13.05;6.78;;;28.90;58.50;;;;;;4942096;28;20024;-71
2021/06/17 05:45:21;;;;;;;13.45;7.22;;;29.00;57.80;;;;;;4944768;29;20500;-73
2021/06/17 05:47:48;;;;;;;14.18;7.40;;;29.30;57.50;;;;;;4954608;28;20030;-71
2021/06/17 05:50:14;;;;;;;12.55;7.43;;;29.50;56.10;;;;;;4954742;28;20063;-73
2021/06/17 05:52:40;;;;;;;12.63;7.35;;;29.60;56.60;;;;;;4954690;28;20031;-73
2021/06/17 05:55:06;;;;;;;11.93;7.15;;;29.70;56.20;;;;;;4954460;29;20019;-70
2021/06/17 05:57:34;;;;;;;16.15;7.28;;;29.70;55.80;;;;;;4954224;28;20023;-70
2021/06/17 06:00:00;;;;;;;14.07;7.18;;;30.00;56.20;;;;;;4953118;29;20027;-69
2021/06/17 06:02:25;;;;;;;14.43;7.22;;;30.10;55.70;;;;;;4957557;28;20029;-70
2021/06/17 06:04:52;;;;;;;13.82;6.97;;;30.10;55.40;;;;;;4958223;28;20019;-69
2021/06/17 06:07:18;;;;;;;16.50;6.93;;;30.10;55.40;;;;;;4957962;28;20027;-70
2021/06/17 06:09:44;;;;;;;17.02;7.10;;;30.10;55.70;;;;;;4958126;28;20055;-69
2021/06/17 06:12:11;;;;;;;11.82;7.50;;;30.30;55.20;;;;;;4957623;28;20216;-69
2021/06/17 06:14:37;;;;;;;13.82;8.32;;;30.40;54.70;;;;;;4954590;28;20032;-70
2021/06/17 06:17:04;;;;;;;9.90;6.85;;;30.40;54.60;;;;;;4940188;28;20035;-70
2021/06/17 06:19:31;;;;;;;10.65;6.82;;;30.30;54.40;;;;;;4937198;29;20389;-70
2021/06/17 06:21:57;;;;;;;11.45;6.68;;;30.40;54.60;;;;;;4937546;29;20024;-70
2021/06/17 06:24:23;;;;;;;16.17;6.53;;;30.40;54.70;;;;;;4943645;29;20481;-70
2021/06/17 06:26:49;;;;;;;10.93;6.90;;;30.60;54.20;;;;;;4951370;28;20085;-69
2021/06/17 06:29:15;;;;;;;12.95;6.18;;;30.90;54.00;;;;;;4954688;28;20035;-69
2021/06/17 06:31:41;;;;;;;10.02;6.20;;;31.20;53.60;;;;;;4950199;29;20023;-70
2021/06/17 06:34:06;;;;;;;12.07;6.47;;;31.30;53.40;;;;;;4938393;29;20389;-70
2021/06/17 06:36:32;;;;;;;9.07;5.85;;;31.30;53.20;;;;;;4938347;29;20039;-69
2021/06/17 06:38:58;;;;;;;14.32;5.82;;;31.20;53.20;;;;;;4938183;29;20565;-70
2021/06/17 06:41:23;;;;;;;9.75;4.80;;;31.10;53.20;;;;;;4938199;29;20020;-69
2021/06/17 06:43:49;;;;;;;8.60;4.80;;;31.10;53.20;;;;;;4938019;29;20063;-70
2021/06/17 06:46:18;;;;;;;12.98;5.60;;;31.30;53.20;;;;;;4937761;29;20019;-71
2021/06/17 06:48:44;;;;;;;9.40;5.40;;;31.40;52.70;;;;;;4938249;29;20115;-70
2021/06/17 06:51:09;;;;;;;10.48;4.90;;;31.40;52.70;;;;;;4940286;29;20481;-71
2021/06/17 06:53:35;;;;;;;12.68;5.05;;;31.40;52.80;;;;;;4936698;29;20485;-71
2021/06/17 06:56:01;;;;;;;9.15;4.80;;;31.50;52.60;;;;;;4937819;29;20111;-70
2021/06/17 06:58:26;;;;;;;21.60;4.72;;;31.50;52.50;;;;;;4937528;29;20035;-71
2021/06/17 07:00:53;;;;;;;11.73;4.25;;;31.60;52.20;;;;;;4937437;29;20556;-70
2021/06/17 07:03:19;;;;;;;9.57;4.43;;;31.50;52.20;;;;;;4937964;29;20023;-70
2021/06/17 07:05:45;;;;;;;9.63;4.47;;;31.50;52.20;;;;;;4937754;29;20024;-71
2021/06/17 07:08:11;;;;;;;8.25;4.22;;;31.40;52.30;;;;;;4937710;29;20389;-71
2021/06/17 07:10:42;;;;;;;10.63;5.13;;;31.40;52.20;;;;;;4937478;29;20052;-70
2021/06/17 07:13:08;;;;;;;8.18;4.28;;;31.40;52.10;;;;;;4936808;29;20047;-70
2021/06/17 07:15:34;;;;;;;15.15;4.20;;;31.30;52.20;;;;;;4937470;29;20067;-69
2021/06/17 07:18:00;;;;;;;8.50;4.50;;;31.20;52.20;;;;;;4937427;29;20067;-69
2021/06/17 07:20:26;;;;;;;9.40;4.00;;;31.20;52.30;;;;;;4937425;29;20040;-71
2021/06/17 07:22:55;;;;;;;12.45;4.10;;;31.30;52.00;;;;;;4937516;29;20056;-72
2021/06/17 07:25:22;;;;;;;7.47;4.55;;;31.40;52.70;;;;;;4937361;29;20363;-71
2021/06/17 07:27:48;;;;;;;10.85;4.18;;;31.60;51.80;;;;;;4937158;29;20039;-71
2021/06/17 07:30:14;;;;;;;14.15;4.90;;;31.50;51.40;;;;;;4937099;29;20046;-71
2021/06/17 07:32:40;;;;;;;11.63;4.30;;;31.70;51.00;;;;;;4937413;29;20035;-72
2021/06/17 07:35:06;;;;;;;8.43;3.72;;;31.50;51.90;;;;;;4937241;29;20027;-73
2021/06/17 07:37:32;;;;;;;10.98;3.65;;;31.40;51.50;;;;;;4937133;29;20484;-71
2021/06/17 07:40:03;;;;;;;21.38;4.30;;;31.50;51.50;;;;;;4937738;29;20039;-73
2021/06/17 07:42:30;;;;;;;8.52;4.18;;;31.50;51.00;;;;;;4936263;29;20035;-71
2021/06/17 07:44:56;;;;;;;12.25;4.22;;;31.30;51.50;;;;;;4935425;29;20127;-75
2021/06/17 07:47:21;;;;;;;11.85;4.32;;;31.10;51.50;;;;;;4937571;29;20055;-75
2021/06/17 07:49:47;;;;;;;10.52;3.72;;;31.10;51.50;;;;;;4935592;29;20027;-74
2021/06/17 07:52:13;;;;;;;9.05;4.43;;;31.10;51.70;;;;;;4936987;29;20024;-73
2021/06/17 07:54:38;;;;;;;20.88;4.60;;;31.20;51.40;;;;;;4935707;29;20441;-73
2021/06/17 07:57:04;;;;;;;10.23;4.88;;;31.30;51.20;;;;;;4935437;29;20454;-72
2021/06/17 07:59:30;;;;;;;16.40;4.93;;;31.30;51.00;;;;;;4935631;29;20062;-74
2021/06/17 08:01:56;;;;;;;12.38;4.38;;;31.30;50.80;;;;;;4937180;29;20020;-73
2021/06/17 08:04:24;;;;;;;11.68;4.70;;;31.40;50.50;;;;;;4936793;29;20126;-70
2021/06/17 08:06:49;;;;;;;11.38;4.75;;;31.50;50.30;;;;;;4936659;29;20039;-71
2021/06/17 08:09:18;;;;;;;8.88;4.35;;;31.40;50.40;;;;;;4936490;29;20032;-70
2021/06/17 08:11:49;;;;;;;9.88;4.65;;;31.50;49.70;;;;;;4936271;29;20501;-71
2021/06/17 08:14:18;;;;;;;10.30;4.70;;;31.40;50.60;;;;;;4936404;29;20106;-70
2021/06/17 08:16:44;;;;;;;8.32;5.00;;;31.40;50.80;;;;;;4936208;29;20031;-71
2021/06/17 08:19:10;;;;;;;8.80;4.85;;;31.20;51.00;;;;;;4934667;29;20368;-72
2021/06/17 08:21:35;;;;;;;9.90;5.15;;;31.00;51.00;;;;;;4936276;29;20058;-71
2021/06/17 08:24:01;;;;;;;10.38;5.18;;;30.90;51.10;;;;;;4935675;29;20159;-72
2021/06/17 08:26:27;;;;;;;11.80;4.63;;;30.80;51.40;;;;;;4934407;29;20035;-71
2021/06/17 08:28:53;;;;;;;245.23;25.00;;;30.60;51.60;;;;;;4935433;29;20031;-74
2021/06/17 08:31:19;;;;;;;197.52;19.33;;;30.60;51.70;;;;;;4936633;29;20348;-72
2021/06/17 08:33:45;;;;;;;16.60;5.10;;;30.70;52.00;;;;;;4936177;29;20381;-72
2021/06/17 08:36:10;;;;;;;10.93;5.28;;;30.70;51.70;;;;;;4936294;29;20106;-72
2021/06/17 08:38:39;;;;;;;16.88;5.57;;;30.70;51.60;;;;;;4935952;29;20461;-72
2021/06/17 08:41:05;;;;;;;34.10;6.18;;;30.80;51.60;;;;;;4935979;29;20026;-72
2021/06/17 08:43:31;;;;;;;13.38;5.30;;;30.70;51.70;;;;;;4936162;29;20038;-71
2021/06/17 08:45:57;;;;;;;11.88;4.85;;;30.60;51.60;;;;;;4935723;29;20126;-71
2021/06/17 08:48:23;;;;;;;13.02;5.03;;;30.50;51.40;;;;;;4935873;29;20540;-71
2021/06/17 08:50:51;;;;;;;14.82;5.00;;;30.50;51.70;;;;;;4935989;29;20035;-73
2021/06/17 08:53:16;;;;;;;11.27;4.70;;;30.50;52.20;;;;;;4934670;29;20362;-72
2021/06/17 08:55:42;;;;;;;11.05;4.65;;;30.50;51.80;;;;;;4935571;29;20023;-72
2021/06/17 08:58:08;;;;;;;10.05;5.25;;;30.60;51.30;;;;;;4935734;29;20362;-69
2021/06/17 09:00:37;;;;;;;11.93;5.68;;;30.60;51.30;;;;;;4935761;29;20031;-69
2021/06/17 09:03:09;;;;;;;13.57;5.43;;;30.60;51.20;;;;;;4935652;29;20421;-69
2021/06/17 09:05:41;;;;;;;11.93;4.75;;;30.70;51.40;;;;;;4935639;29;20115;-68
2021/06/17 09:08:08;;;;;;;11.55;4.70;;;30.70;51.20;;;;;;4935737;29;20024;-67
2021/06/17 09:10:39;;;;;;;16.50;5.30;;;30.80;51.20;;;;;;4935758;29;20028;-67
2021/06/17 09:13:05;;;;;;;14.10;5.32;;;30.80;50.90;;;;;;4935766;29;20122;-70
2021/06/17 09:15:43;;;;;;;16.73;5.43;;;30.70;50.80;;;;;;4935663;29;20043;-68
2021/06/17 09:18:19;;;;;;;16.73;5.22;;;30.70;49.70;;;;;;4935348;29;20470;-67
2021/06/17 09:20:46;;;;;;;16.48;5.30;;;30.70;49.90;;;;;;4935595;29;20055;-70
2021/06/17 09:23:31;;;;;;;14.15;5.18;;;30.80;50.80;;;;;;4935377;29;20036;-67
2021/06/17 09:26:00;;;;;;;14.25;5.43;;;30.80;50.00;;;;;;4934974;29;20031;-70
2021/06/17 09:28:43;;;;;;;31.83;5.63;;;31.00;50.60;;;;;;4935213;29;20032;-67
2021/06/17 09:31:20;;;;;;;12.68;5.57;;;31.10;50.60;;;;;;4935511;29;20059;-67
2021/06/17 09:33:47;;;;;;;19.92;9.57;;;31.00;49.10;;;;;;4935273;29;20020;-68
2021/06/17 09:36:14;;;;;;;12.52;5.15;;;31.00;50.30;;;;;;4936469;29;20031;-69
2021/06/17 09:39:00;;;;;;;14.05;5.55;;;31.00;49.90;;;;;;4939528;29;20051;-67
2021/06/17 09:41:43;;;;;;;13.80;4.97;;;30.80;49.60;;;;;;4939716;29;20027;-66
2021/06/17 09:44:33;;;;;;;12.05;5.07;;;30.80;49.70;;;;;;4939392;29;20039;-68
2021/06/17 09:47:10;;;;;;;13.07;6.20;;;30.90;48.90;;;;;;4938883;29;20027;-66
2021/06/17 09:49:39;;;;;;;43.55;8.70;;;30.90;49.70;;;;;;4939232;29;20023;-67
2021/06/17 09:52:06;;;;;;;13.57;5.55;;;30.90;51.30;;;;;;4939002;29;20034;-67
2021/06/17 09:54:33;;;;;;;11.88;4.65;;;31.00;51.20;;;;;;4939322;29;20043;-68
2021/06/17 09:57:04;;;;;;;12.07;4.63;;;30.90;50.10;;;;;;4938754;29;20043;-68
2021/06/17 09:59:39;;;;;;;11.38;4.90;;;30.80;49.00;;;;;;4938704;29;20036;-67
2021/06/17 10:02:07;;;;;;;10.13;4.82;;;30.70;49.50;;;;;;4938617;29;20028;-69
2021/06/17 10:04:33;;;;;;;7.88;4.78;;;30.70;49.80;;;;;;4938824;29;20373;-70
2021/06/17 10:07:00;;;;;;;16.67;5.90;;;30.90;49.60;;;;;;4938938;29;20386;-74
2021/06/17 10:09:25;;;;;;;13.80;6.03;;;30.90;49.30;;;;;;4938561;29;20543;-71
2021/06/17 10:11:53;;;;;;;9.80;5.07;;;31.00;48.90;;;;;;4937034;29;20155;-74
2021/06/17 10:14:19;;;;;;;35.35;6.93;;;31.20;48.20;;;;;;4937427;29;20039;-81
2021/06/17 10:16:46;;;;;;;10.20;5.10;;;31.30;48.70;;;;;;4938339;29;20020;-73
2021/06/17 10:19:13;;;;;;;14.48;5.30;;;31.30;48.20;;;;;;4937038;29;20036;-75
2021/06/17 10:21:39;;;;;;;8.93;5.63;;;31.30;48.50;;;;;;4938712;29;20023;-74
2021/06/17 10:24:14;;;;;;;11.02;5.10;;;31.30;48.50;;;;;;4937054;29;20374;-74
2021/06/17 10:26:44;;;;;;;13.23;5.53;;;31.20;48.20;;;;;;4938320;29;20051;-71
2021/06/17 10:29:26;;;;;;;11.70;5.40;;;31.20;48.30;;;;;;4938556;29;20027;-70
2021/06/17 10:31:58;;;;;;;14.85;6.20;;;31.30;47.50;;;;;;4938283;29;20024;-72
2021/06/17 10:34:24;;;;;;;15.18;6.55;;;31.30;48.40;;;;;;4938244;29;20038;-72
2021/06/17 10:37:15;;;;;;;14.40;6.43;;;31.40;48.40;;;;;;4938296;29;20035;-72
2021/06/17 10:39:52;;;;;;;10.55;5.88;;;31.60;47.30;;;;;;4938443;29;20130;-73
2021/06/17 10:42:24;;;;;;;11.43;5.10;;;31.70;47.00;;;;;;4938567;29;20075;-74
2021/06/17 10:44:56;;;;;;;10.15;5.15;;;31.60;46.70;;;;;;4937960;29;20040;-74
2021/06/17 10:47:49;;;;;;;11.63;5.43;;;31.40;46.90;;;;;;4935672;29;20024;-74
2021/06/17 10:50:16;;;;;;;;;;;31.40;47.40;;;;;;4949373;29;20035;-74
2021/06/17 10:52:43;;;;;;;11.38;5.32;;;31.40;46.50;;;;;;4937963;29;19906;-68
2021/06/17 10:55:14;;;;;;;13.65;6.22;;;31.50;46.80;;;;;;4938017;29;20034;-72
2021/06/17 10:57:44;;;;;;;10.18;5.63;;;31.40;46.90;;;;;;4937979;29;20374;-69
2021/06/17 11:00:30;;;;;;;8.63;5.53;;;31.30;46.90;;;;;;4936447;29;20105;-73
2021/06/17 11:03:04;;;;;;;11.00;5.40;;;31.50;46.80;;;;;;4938130;29;20488;-73
2021/06/17 11:05:33;;;;;;;;;;;31.60;46.70;;;;;;4937817;29;20118;-70
2021/06/17 11:08:14;;;;;;;11.63;5.65;;;31.80;46.60;;;;;;4937451;29;19907;-69
2021/06/17 11:10:46;;;;;;;13.02;5.05;;;31.90;46.80;;;;;;4937366;29;20031;-69
2021/06/17 11:13:39;;;;;;;14.57;5.38;;;31.80;45.90;;;;;;4937560;29;20492;-69
2021/06/17 11:16:26;;;;;;;7.65;5.10;;;31.60;45.90;;;;;;4937044;29;20028;-70
2021/06/17 11:18:59;;;;;;;10.15;5.05;;;31.50;46.60;;;;;;4933438;29;20056;-69
2021/06/17 11:21:27;;;;;;;14.23;5.13;;;31.50;46.50;;;;;;4937652;29;20024;-69
2021/06/17 11:24:09;;;;;;;10.00;5.03;;;31.50;45.80;;;;;;4937346;29;20126;-70
2021/06/17 11:26:45;;;;;;;13.27;4.90;;;31.70;46.10;;;;;;4937380;29;20039;-70
2021/06/17 11:29:34;;;;;;;13.70;4.90;;;31.90;46.40;;;;;;4937296;29;20130;-69
2021/06/17 11:32:00;;;;;;;14.15;5.35;;;32.10;46.70;;;;;;4934464;29;20040;-70
2021/06/17 11:34:28;;;;;;;15.60;5.30;;;32.30;47.30;;;;;;4937304;29;20531;-69
2021/06/17 11:36:57;;;;;;;11.13;5.63;;;32.30;47.30;;;;;;4937386;29;20055;-73
2021/06/17 11:39:27;;;;;;;9.52;4.88;;;32.40;47.60;;;;;;4937257;29;20047;-69
2021/06/17 11:41:58;;;;;;;10.73;4.70;;;32.50;47.10;;;;;;4937431;29;20438;-68
2021/06/17 11:44:27;;;;;;;10.65;5.30;;;32.40;47.00;;;;;;4937095;29;20024;-71
2021/06/17 11:47:11;;;;;;;15.07;4.82;;;32.40;47.90;;;;;;4936917;29;20098;-74
2021/06/17 11:49:41;;;;;;;10.77;4.63;;;32.50;47.30;;;;;;4935756;29;20107;-66
2021/06/17 11:52:11;;;;;;;15.63;4.60;;;32.50;47.60;;;;;;4935544;29;20124;-68
2021/06/17 11:54:37;;;;;;;9.32;4.85;;;32.50;47.70;;;;;;4936992;29;20466;-67
2021/06/17 11:57:04;;;;;;;10.60;4.70;;;32.50;47.80;;;;;;4936555;29;20536;-68
2021/06/17 11:59:38;;;;;;;13.02;5.28;;;32.30;47.70;;;;;;4936245;29;20551;-66
2021/06/17 12:02:19;;;;;;;9.35;4.90;;;32.20;48.00;;;;;;4936853;29;20028;-67
2021/06/17 12:04:49;;;;;;;9.90;4.38;;;32.20;47.60;;;;;;4936440;29;20090;-68
2021/06/17 12:07:15;;;;;;;9.60;4.15;;;32.30;47.90;;;;;;4935036;29;20558;-66
2021/06/17 12:09:41;;;;;;;9.07;3.80;;;32.40;47.10;;;;;;4936610;29;20032;-70
2021/06/17 12:12:24;;;;;;;9.63;3.75;;;32.40;46.70;;;;;;4936525;29;20110;-68
2021/06/17 12:14:53;;;;;;;9.40;3.60;;;32.40;46.60;;;;;;4935705;29;20063;-69
2021/06/17 12:17:36;;;;;;;7.68;3.80;;;32.50;46.10;;;;;;4936115;29;20164;-68
2021/06/17 12:20:31;;;;;;;7.63;3.83;;;32.40;46.80;;;;;;4936695;29;20044;-71
2021/06/17 12:22:57;;;;;;;8.23;4.10;;;32.40;45.20;;;;;;4936376;29;20032;-68
2021/06/17 12:25:25;;;;;;;10.48;4.18;;;32.40;45.50;;;;;;4936312;29;20047;-69
2021/06/17 12:27:52;;;;;;;15.00;3.92;;;32.30;45.50;;;;;;4936753;29;20441;-69
2021/06/17 12:30:32;;;;;;;6.85;3.65;;;32.40;45.40;;;;;;4936332;29;20106;-67
2021/06/17 12:33:14;;;;;;;8.77;3.58;;;32.50;46.20;;;;;;4936810;29;20389;-68
2021/06/17 12:35:53;;;;;;;8.10;3.47;;;32.60;45.50;;;;;;4936332;29;20023;-70
2021/06/17 12:38:37;;;;;;;5.38;3.35;;;32.60;45.20;;;;;;4936149;29;20040;-68
2021/06/17 12:41:17;;;;;;;11.02;3.70;;;32.60;45.20;;;;;;4936148;29;20502;-68
2021/06/17 12:43:45;;;;;;;9.93;3.10;;;32.60;45.30;;;;;;4936093;29;20020;-68
2021/06/17 12:46:11;;;;;;;9.25;3.50;;;32.60;44.70;;;;;;4936124;29;20031;-70
2021/06/17 12:54:08;;;;;;;7.78;3.25;;;32.60;44.70;;;;;;4936295;29;20031;-71
2021/06/17 12:56:35;;;;;;;7.35;3.17;;;32.50;44.30;;;;;;4935727;29;20393;-70
2021/06/17 12:59:01;;;;;;;10.02;3.92;;;32.40;44.20;;;;;;4935792;29;20484;-69
2021/06/17 13:01:47;;;;;;;14.55;4.32;;;32.40;44.50;;;;;;4936522;29;20456;-74
2021/06/17 13:04:17;;;;;;;9.50;3.35;;;32.40;44.50;;;;;;4936061;29;20047;-69